SBOSBO LIG / LFBL
Speedbird OnlineSpeedbird Online LIG / LFBL

Limoges Airport
13:07 20°C

Location Limoges, France
Latitude: 45.86280059814453
Longitude: 1.1794400215148926
Local Time 13:07 on 17 Jun 2024
UTC +2 hours (Europe/Paris)
Currency £1 equals EUR 1.19
METAR LFBL 171030Z AUTO VRB03KT CAVOK 20/16 Q1014 TEMPO BKN014
TAF TAF AMD LFBL 170916Z 1709/1806 12005KT 9999 OVC004 BECMG 1710/1712 BKN014 BECMG 1712/1714 BKN030 BECMG 1716/1718 CAVOK TEMPO 1718/1803 SCT060CB PROB30 TEMPO 1800/1803 3000 -TSRA BKN050CB
Weather As Of 17 Jun 2024 13:07
Description Clear sky
Wind 6 km/h from North (0°)
Cloud Cover 0%
Precipitation Rain: none, Snow: none
Sunrise 06:04
Sunset 21:48
NOTAM 1 active NOTAM
Web Wikipedia
Codes IATA: LIG
ICAO: LFBL
Altitude 396 Meter / 1300 Feet
Distance 632 KM / 393 Miles
from London.
Runways
RunwayLength (m)Surface
032500Asphalt
212500Asphalt
Radio
TypeDescriptionFrequency
APPLIMOGES APP119.2
ATISATIS128.075
INFOLIMOGES INFO124.05
TWRLIMOGES TWR118.7
Live ATC



Support Speedbird Online

© 2017-2024 Speedbird Online